Portada
METAR-TAF:

METAR-TAF

Aeroports :

Sankt Moritz, Suïssa

latitud: 46-32-03N, longitud: 9-53-03E, altitud: 1707 m

Observació

L'informe es va fer fa 11 minuts, a les 19:50 UTC
Vent 3 kt del Sud-Oest, variant entre Sud/Sud-Est i Oest/Sud-Oest
Temperatura 5°C
Humitat 81%
Pressió 1020 hPa
Visibilitat 10 km o més
sense núvols per sota de 1500 mi sense presència de cumulonimbus.

METAR: LSZS 291950Z AUTO 22003KT 160V250 CAVOK 05/02 Q1020

Hora: 22:01 (20:01 UTC)

Pronòstic

L'informe es va fer fa 5 hores i 36 minuts, a les 14:25 UTC
Pronòstic vàlid del 29 a les 15 UTC al 29 a les 24 UTC
Vent 8 kt del Nord/Nord-Est
Visibilitat 10 km o més
Escasses núvols a una alçada de 7000 ft

TAF: LSZS 291425Z 2915/2924 02008KT 9999 FEW070 TX12/2915Z

Observacions i pronòstics meteorològics de més de 4000 aeroports (METAR i TAF).

Les estacions disponibles són els punts grocs i vermells al mapa.

Posi el ratolí al punt desitjat per veure el nom de l'estació.

Feu clic per veure les observacions i els pronòstics meteorològics.

Per canviar el mapa: feu clic els botons verds amb una creu de color negre per apropar; al botó verd amb un guió per allunyar la imatge; o en les fletxes verdes per a mapes adjacents.


METAR-TAF: